Terminal Aerodrome Forecast
Issued by NWS

Home | Current Version | Previous Version | Text Only | Print | Product List | Glossary On
Versions: 1 2 3 4 5 6 7 8 9 10 11 12 13 14 15 16 17 18 19 20 21 22 23 24 25 26 27 28 29 30 31 32 33 34 35 36 37 38 39 40 41 42
000
FTUS45 KPSR 060204 AAA
TAFSDL
TAF AMD
KSDL 060204Z 0602/0624 13012G20KT P6SM SCT080 SCT140 OVC200
     FM060400 VRB04KT P6SM FEW090 SCT150 BKN250
     FM061900 23010KT P6SM FEW090 SCT250=

USA.gov is the U.S. government's official web portal to all federal, state and local government web resources and services.